sensor_id;sensor_type;location;lat;lon;timestamp;P1;durP1;ratioP1;P2;durP2;ratioP2
13816;SDS011;6979;52.116;5.286;2023-02-21T00:01:56;24.83;;;21.87;;
13816;SDS011;6979;52.116;5.286;2023-02-21T00:04:43;26.33;;;23.50;;
13816;SDS011;6979;52.116;5.286;2023-02-21T00:07:29;29.93;;;23.67;;
13816;SDS011;6979;52.116;5.286;2023-02-21T00:10:16;26.83;;;22.63;;
13816;SDS011;6979;52.116;5.286;2023-02-21T00:13:01;26.80;;;24.00;;
13816;SDS011;6979;52.116;5.286;2023-02-21T00:15:45;27.63;;;22.97;;
13816;SDS011;6979;52.116;5.286;2023-02-21T00:18:32;29.40;;;24.83;;
13816;SDS011;6979;52.116;5.286;2023-02-21T00:21:17;30.10;;;24.47;;
13816;SDS011;6979;52.116;5.286;2023-02-21T00:24:03;27.83;;;24.17;;
13816;SDS011;6979;52.116;5.286;2023-02-21T00:26:48;28.50;;;24.53;;
13816;SDS011;6979;52.116;5.286;2023-02-21T00:29:35;28.30;;;24.47;;
13816;SDS011;6979;52.116;5.286;2023-02-21T00:32:20;27.03;;;24.03;;
13816;SDS011;6979;52.116;5.286;2023-02-21T00:35:04;24.77;;;22.17;;
13816;SDS011;6979;52.116;5.286;2023-02-21T00:37:49;34.33;;;25.50;;
13816;SDS011;6979;52.116;5.286;2023-02-21T00:40:35;26.70;;;22.13;;
13816;SDS011;6979;52.116;5.286;2023-02-21T00:43:26;28.83;;;24.30;;
13816;SDS011;6979;52.116;5.286;2023-02-21T00:46:11;28.33;;;24.10;;
13816;SDS011;6979;52.116;5.286;2023-02-21T00:48:57;26.90;;;23.20;;
13816;SDS011;6979;52.116;5.286;2023-02-21T00:51:41;30.23;;;24.20;;
13816;SDS011;6979;52.116;5.286;2023-02-21T00:54:26;26.23;;;22.97;;
13816;SDS011;6979;52.116;5.286;2023-02-21T00:57:12;29.23;;;24.27;;
13816;SDS011;6979;52.116;5.286;2023-02-21T00:59:56;26.83;;;24.03;;
13816;SDS011;6979;52.116;5.286;2023-02-21T01:02:40;26.43;;;23.57;;
13816;SDS011;6979;52.116;5.286;2023-02-21T01:05:24;27.93;;;22.70;;
13816;SDS011;6979;52.116;5.286;2023-02-21T01:08:08;28.60;;;24.53;;
13816;SDS011;6979;52.116;5.286;2023-02-21T01:10:53;29.10;;;23.93;;
13816;SDS011;6979;52.116;5.286;2023-02-21T01:13:39;36.80;;;26.90;;
13816;SDS011;6979;52.116;5.286;2023-02-21T01:16:23;34.87;;;27.67;;
13816;SDS011;6979;52.116;5.286;2023-02-21T01:19:11;35.63;;;26.13;;
13816;SDS011;6979;52.116;5.286;2023-02-21T01:22:01;31.03;;;26.10;;
13816;SDS011;6979;52.116;5.286;2023-02-21T01:24:48;28.40;;;25.40;;
13816;SDS011;6979;52.116;5.286;2023-02-21T01:27:33;32.60;;;27.97;;
13816;SDS011;6979;52.116;5.286;2023-02-21T01:30:19;34.00;;;28.43;;
13816;SDS011;6979;52.116;5.286;2023-02-21T01:33:03;33.77;;;28.13;;
13816;SDS011;6979;52.116;5.286;2023-02-21T01:35:50;30.57;;;25.97;;
13816;SDS011;6979;52.116;5.286;2023-02-21T01:38:34;34.03;;;27.73;;
13816;SDS011;6979;52.116;5.286;2023-02-21T01:41:19;31.27;;;26.50;;
13816;SDS011;6979;52.116;5.286;2023-02-21T01:44:05;30.63;;;25.93;;
13816;SDS011;6979;52.116;5.286;2023-02-21T01:47:11;30.13;;;24.83;;
13816;SDS011;6979;52.116;5.286;2023-02-21T01:49:56;30.60;;;25.50;;
13816;SDS011;6979;52.116;5.286;2023-02-21T01:52:42;30.90;;;27.47;;
13816;SDS011;6979;52.116;5.286;2023-02-21T01:55:27;37.13;;;29.50;;
13816;SDS011;6979;52.116;5.286;2023-02-21T01:58:12;42.60;;;32.37;;
13816;SDS011;6979;52.116;5.286;2023-02-21T02:00:59;33.33;;;28.60;;
13816;SDS011;6979;52.116;5.286;2023-02-21T02:03:44;32.43;;;28.13;;
13816;SDS011;6979;52.116;5.286;2023-02-21T02:06:29;31.17;;;27.07;;
13816;SDS011;6979;52.116;5.286;2023-02-21T02:09:14;31.53;;;26.40;;
13816;SDS011;6979;52.116;5.286;2023-02-21T02:12:04;30.70;;;26.23;;
13816;SDS011;6979;52.116;5.286;2023-02-21T02:15:15;38.53;;;30.03;;
13816;SDS011;6979;52.116;5.286;2023-02-21T02:21:01;30.50;;;27.30;;
13816;SDS011;6979;52.116;5.286;2023-02-21T02:24:02;31.83;;;26.33;;
13816;SDS011;6979;52.116;5.286;2023-02-21T02:26:59;33.17;;;28.57;;
13816;SDS011;6979;52.116;5.286;2023-02-21T02:29:55;30.67;;;27.37;;
13816;SDS011;6979;52.116;5.286;2023-02-21T02:32:46;29.47;;;26.30;;
13816;SDS011;6979;52.116;5.286;2023-02-21T02:35:40;35.07;;;29.37;;
13816;SDS011;6979;52.116;5.286;2023-02-21T02:38:12;32.90;;;29.43;;
13816;SDS011;6979;52.116;5.286;2023-02-21T02:40:45;36.20;;;29.67;;
13816;SDS011;6979;52.116;5.286;2023-02-21T02:43:21;35.63;;;27.73;;
13816;SDS011;6979;52.116;5.286;2023-02-21T02:45:55;39.47;;;30.37;;
13816;SDS011;6979;52.116;5.286;2023-02-21T02:48:29;36.50;;;32.13;;
13816;SDS011;6979;52.116;5.286;2023-02-21T02:51:01;36.63;;;32.50;;
13816;SDS011;6979;52.116;5.286;2023-02-21T02:53:34;41.17;;;31.57;;
13816;SDS011;6979;52.116;5.286;2023-02-21T02:56:03;38.17;;;31.80;;
13816;SDS011;6979;52.116;5.286;2023-02-21T02:58:36;38.83;;;31.73;;
13816;SDS011;6979;52.116;5.286;2023-02-21T03:01:16;42.40;;;31.63;;
13816;SDS011;6979;52.116;5.286;2023-02-21T03:04:00;40.93;;;33.07;;
13816;SDS011;6979;52.116;5.286;2023-02-21T03:06:41;40.93;;;31.07;;
13816;SDS011;6979;52.116;5.286;2023-02-21T03:09:13;35.83;;;28.80;;
13816;SDS011;6979;52.116;5.286;2023-02-21T03:11:47;40.97;;;31.93;;
13816;SDS011;6979;52.116;5.286;2023-02-21T03:14:21;38.43;;;31.57;;
13816;SDS011;6979;52.116;5.286;2023-02-21T03:16:56;43.77;;;33.50;;
13816;SDS011;6979;52.116;5.286;2023-02-21T03:19:26;38.77;;;33.30;;
13816;SDS011;6979;52.116;5.286;2023-02-21T03:22:00;38.47;;;32.93;;
13816;SDS011;6979;52.116;5.286;2023-02-21T03:24:30;36.23;;;30.10;;
13816;SDS011;6979;52.116;5.286;2023-02-21T03:27:02;39.73;;;31.77;;
13816;SDS011;6979;52.116;5.286;2023-02-21T03:29:45;39.87;;;33.33;;
13816;SDS011;6979;52.116;5.286;2023-02-21T03:32:14;38.60;;;32.33;;
13816;SDS011;6979;52.116;5.286;2023-02-21T03:34:45;43.23;;;34.33;;
13816;SDS011;6979;52.116;5.286;2023-02-21T03:37:18;45.73;;;35.03;;
13816;SDS011;6979;52.116;5.286;2023-02-21T03:39:48;45.47;;;36.90;;
13816;SDS011;6979;52.116;5.286;2023-02-21T03:42:18;42.67;;;34.93;;
13816;SDS011;6979;52.116;5.286;2023-02-21T03:44:47;37.00;;;31.90;;
13816;SDS011;6979;52.116;5.286;2023-02-21T03:47:14;39.53;;;30.97;;
13816;SDS011;6979;52.116;5.286;2023-02-21T03:49:41;45.53;;;36.13;;
13816;SDS011;6979;52.116;5.286;2023-02-21T03:52:10;42.33;;;34.30;;
13816;SDS011;6979;52.116;5.286;2023-02-21T03:54:39;38.17;;;32.27;;
13816;SDS011;6979;52.116;5.286;2023-02-21T03:57:09;39.93;;;32.43;;
13816;SDS011;6979;52.116;5.286;2023-02-21T03:59:41;49.60;;;37.00;;
13816;SDS011;6979;52.116;5.286;2023-02-21T04:02:08;39.90;;;33.60;;
13816;SDS011;6979;52.116;5.286;2023-02-21T04:04:35;44.17;;;35.23;;
13816;SDS011;6979;52.116;5.286;2023-02-21T04:07:07;44.13;;;34.17;;
13816;SDS011;6979;52.116;5.286;2023-02-21T04:09:36;42.97;;;34.37;;
13816;SDS011;6979;52.116;5.286;2023-02-21T04:12:06;42.23;;;34.60;;
13816;SDS011;6979;52.116;5.286;2023-02-21T04:14:35;36.00;;;31.03;;
13816;SDS011;6979;52.116;5.286;2023-02-21T04:17:02;42.03;;;32.80;;
13816;SDS011;6979;52.116;5.286;2023-02-21T04:19:29;43.17;;;32.80;;
13816;SDS011;6979;52.116;5.286;2023-02-21T04:21:56;42.13;;;34.23;;
13816;SDS011;6979;52.116;5.286;2023-02-21T04:24:25;42.87;;;33.67;;
13816;SDS011;6979;52.116;5.286;2023-02-21T04:26:51;42.73;;;33.17;;
13816;SDS011;6979;52.116;5.286;2023-02-21T04:29:21;43.57;;;35.63;;
13816;SDS011;6979;52.116;5.286;2023-02-21T04:31:49;46.63;;;36.20;;
13816;SDS011;6979;52.116;5.286;2023-02-21T04:34:17;42.97;;;35.67;;
13816;SDS011;6979;52.116;5.286;2023-02-21T04:36:45;40.33;;;33.10;;
13816;SDS011;6979;52.116;5.286;2023-02-21T04:39:12;45.00;;;36.27;;
13816;SDS011;6979;52.116;5.286;2023-02-21T04:41:39;46.43;;;37.03;;
13816;SDS011;6979;52.116;5.286;2023-02-21T04:44:10;41.50;;;33.60;;
13816;SDS011;6979;52.116;5.286;2023-02-21T04:46:39;45.83;;;35.93;;
13816;SDS011;6979;52.116;5.286;2023-02-21T04:49:06;47.30;;;36.07;;
13816;SDS011;6979;52.116;5.286;2023-02-21T04:51:33;46.10;;;36.30;;
13816;SDS011;6979;52.116;5.286;2023-02-21T04:54:00;53.40;;;38.33;;
13816;SDS011;6979;52.116;5.286;2023-02-21T04:56:27;47.50;;;35.40;;
13816;SDS011;6979;52.116;5.286;2023-02-21T04:58:54;48.33;;;35.00;;
13816;SDS011;6979;52.116;5.286;2023-02-21T05:01:21;52.00;;;37.60;;
13816;SDS011;6979;52.116;5.286;2023-02-21T05:03:53;40.67;;;32.73;;
13816;SDS011;6979;52.116;5.286;2023-02-21T05:06:20;54.57;;;39.20;;
13816;SDS011;6979;52.116;5.286;2023-02-21T05:08:54;44.40;;;36.30;;
13816;SDS011;6979;52.116;5.286;2023-02-21T05:11:21;51.53;;;38.03;;
13816;SDS011;6979;52.116;5.286;2023-02-21T05:13:48;47.33;;;35.03;;
13816;SDS011;6979;52.116;5.286;2023-02-21T05:16:16;45.97;;;34.73;;
13816;SDS011;6979;52.116;5.286;2023-02-21T05:18:44;44.60;;;34.87;;
13816;SDS011;6979;52.116;5.286;2023-02-21T05:21:14;46.90;;;35.53;;
13816;SDS011;6979;52.116;5.286;2023-02-21T05:23:41;47.77;;;36.77;;
13816;SDS011;6979;52.116;5.286;2023-02-21T05:26:20;50.37;;;36.83;;
13816;SDS011;6979;52.116;5.286;2023-02-21T05:28:51;46.93;;;34.77;;
13816;SDS011;6979;52.116;5.286;2023-02-21T05:31:18;51.80;;;37.50;;
13816;SDS011;6979;52.116;5.286;2023-02-21T05:33:49;52.63;;;36.70;;
13816;SDS011;6979;52.116;5.286;2023-02-21T05:36:18;48.23;;;36.80;;
13816;SDS011;6979;52.116;5.286;2023-02-21T05:38:45;44.60;;;36.00;;
13816;SDS011;6979;52.116;5.286;2023-02-21T05:41:13;47.50;;;35.83;;
13816;SDS011;6979;52.116;5.286;2023-02-21T05:43:41;47.53;;;34.63;;
13816;SDS011;6979;52.116;5.286;2023-02-21T05:46:15;46.27;;;34.17;;
13816;SDS011;6979;52.116;5.286;2023-02-21T05:48:43;50.27;;;36.60;;
13816;SDS011;6979;52.116;5.286;2023-02-21T05:51:10;50.53;;;35.10;;
13816;SDS011;6979;52.116;5.286;2023-02-21T05:53:40;45.00;;;34.53;;
13816;SDS011;6979;52.116;5.286;2023-02-21T05:56:07;47.80;;;36.23;;
13816;SDS011;6979;52.116;5.286;2023-02-21T05:58:34;40.33;;;32.70;;
13816;SDS011;6979;52.116;5.286;2023-02-21T06:01:02;43.97;;;33.47;;
13816;SDS011;6979;52.116;5.286;2023-02-21T06:03:29;40.53;;;31.33;;
13816;SDS011;6979;52.116;5.286;2023-02-21T06:05:57;42.43;;;31.13;;
13816;SDS011;6979;52.116;5.286;2023-02-21T06:08:24;53.43;;;39.23;;
13816;SDS011;6979;52.116;5.286;2023-02-21T06:10:52;52.90;;;39.47;;
13816;SDS011;6979;52.116;5.286;2023-02-21T06:13:19;47.10;;;34.27;;
13816;SDS011;6979;52.116;5.286;2023-02-21T06:15:48;51.77;;;35.13;;
13816;SDS011;6979;52.116;5.286;2023-02-21T06:18:17;68.53;;;46.27;;
13816;SDS011;6979;52.116;5.286;2023-02-21T06:20:44;65.07;;;46.83;;
13816;SDS011;6979;52.116;5.286;2023-02-21T06:23:11;57.30;;;39.40;;
13816;SDS011;6979;52.116;5.286;2023-02-21T06:25:41;59.33;;;40.63;;
13816;SDS011;6979;52.116;5.286;2023-02-21T06:28:09;56.97;;;37.77;;
13816;SDS011;6979;52.116;5.286;2023-02-21T06:30:36;55.50;;;39.43;;
13816;SDS011;6979;52.116;5.286;2023-02-21T06:33:02;54.90;;;37.47;;
13816;SDS011;6979;52.116;5.286;2023-02-21T06:35:29;53.60;;;37.07;;
13816;SDS011;6979;52.116;5.286;2023-02-21T06:37:56;53.87;;;36.50;;
13816;SDS011;6979;52.116;5.286;2023-02-21T06:40:23;56.77;;;38.50;;
13816;SDS011;6979;52.116;5.286;2023-02-21T06:42:50;64.47;;;41.80;;
13816;SDS011;6979;52.116;5.286;2023-02-21T06:45:19;52.27;;;38.87;;
13816;SDS011;6979;52.116;5.286;2023-02-21T06:47:46;51.63;;;36.97;;
13816;SDS011;6979;52.116;5.286;2023-02-21T06:50:13;56.77;;;38.70;;
13816;SDS011;6979;52.116;5.286;2023-02-21T06:52:41;58.00;;;40.23;;
13816;SDS011;6979;52.116;5.286;2023-02-21T06:55:08;56.47;;;38.83;;
13816;SDS011;6979;52.116;5.286;2023-02-21T06:57:35;51.13;;;37.93;;
13816;SDS011;6979;52.116;5.286;2023-02-21T07:00:02;53.27;;;38.50;;
13816;SDS011;6979;52.116;5.286;2023-02-21T07:02:34;53.47;;;37.13;;
13816;SDS011;6979;52.116;5.286;2023-02-21T07:05:03;54.60;;;38.20;;
13816;SDS011;6979;52.116;5.286;2023-02-21T07:07:30;57.53;;;40.23;;
13816;SDS011;6979;52.116;5.286;2023-02-21T07:09:57;58.70;;;40.33;;
13816;SDS011;6979;52.116;5.286;2023-02-21T07:12:24;54.63;;;40.10;;
13816;SDS011;6979;52.116;5.286;2023-02-21T07:14:51;57.03;;;38.20;;
13816;SDS011;6979;52.116;5.286;2023-02-21T07:17:19;55.13;;;38.17;;
13816;SDS011;6979;52.116;5.286;2023-02-21T07:19:48;56.40;;;40.17;;
13816;SDS011;6979;52.116;5.286;2023-02-21T07:22:14;54.00;;;37.70;;
13816;SDS011;6979;52.116;5.286;2023-02-21T07:24:43;58.23;;;38.87;;
13816;SDS011;6979;52.116;5.286;2023-02-21T07:27:10;56.03;;;42.80;;
13816;SDS011;6979;52.116;5.286;2023-02-21T07:29:37;63.37;;;42.77;;
13816;SDS011;6979;52.116;5.286;2023-02-21T07:32:05;56.03;;;39.73;;
13816;SDS011;6979;52.116;5.286;2023-02-21T07:34:32;58.70;;;38.63;;
13816;SDS011;6979;52.116;5.286;2023-02-21T07:37:00;60.97;;;42.37;;
13816;SDS011;6979;52.116;5.286;2023-02-21T07:39:27;53.80;;;39.90;;
13816;SDS011;6979;52.116;5.286;2023-02-21T07:41:54;55.67;;;40.70;;
13816;SDS011;6979;52.116;5.286;2023-02-21T07:44:27;59.77;;;40.43;;
13816;SDS011;6979;52.116;5.286;2023-02-21T07:46:54;58.77;;;42.07;;
13816;SDS011;6979;52.116;5.286;2023-02-21T07:49:24;62.37;;;42.13;;
13816;SDS011;6979;52.116;5.286;2023-02-21T07:51:51;58.90;;;41.17;;
13816;SDS011;6979;52.116;5.286;2023-02-21T07:54:19;59.37;;;40.33;;
13816;SDS011;6979;52.116;5.286;2023-02-21T07:56:50;55.30;;;39.23;;
13816;SDS011;6979;52.116;5.286;2023-02-21T07:59:17;58.47;;;41.93;;
13816;SDS011;6979;52.116;5.286;2023-02-21T08:01:44;61.03;;;39.53;;
13816;SDS011;6979;52.116;5.286;2023-02-21T08:04:11;61.07;;;43.10;;
13816;SDS011;6979;52.116;5.286;2023-02-21T08:06:45;58.27;;;42.43;;
13816;SDS011;6979;52.116;5.286;2023-02-21T08:09:11;62.50;;;41.03;;
13816;SDS011;6979;52.116;5.286;2023-02-21T08:11:40;57.17;;;40.87;;
13816;SDS011;6979;52.116;5.286;2023-02-21T08:14:07;60.13;;;42.30;;
13816;SDS011;6979;52.116;5.286;2023-02-21T08:16:34;65.57;;;45.53;;
13816;SDS011;6979;52.116;5.286;2023-02-21T08:19:00;63.50;;;42.37;;
13816;SDS011;6979;52.116;5.286;2023-02-21T08:21:29;64.47;;;43.70;;
13816;SDS011;6979;52.116;5.286;2023-02-21T08:23:56;58.70;;;43.87;;
13816;SDS011;6979;52.116;5.286;2023-02-21T08:26:23;59.00;;;42.00;;
13816;SDS011;6979;52.116;5.286;2023-02-21T08:28:57;58.03;;;42.17;;
13816;SDS011;6979;52.116;5.286;2023-02-21T08:31:24;58.03;;;38.87;;
13816;SDS011;6979;52.116;5.286;2023-02-21T08:33:51;57.27;;;40.53;;
13816;SDS011;6979;52.116;5.286;2023-02-21T08:36:18;58.97;;;39.90;;
13816;SDS011;6979;52.116;5.286;2023-02-21T08:38:45;60.03;;;41.50;;
13816;SDS011;6979;52.116;5.286;2023-02-21T08:41:20;61.67;;;40.67;;
13816;SDS011;6979;52.116;5.286;2023-02-21T08:43:47;65.33;;;43.20;;
13816;SDS011;6979;52.116;5.286;2023-02-21T08:46:15;63.30;;;42.30;;
13816;SDS011;6979;52.116;5.286;2023-02-21T08:48:42;64.93;;;42.30;;
13816;SDS011;6979;52.116;5.286;2023-02-21T08:51:09;63.07;;;40.20;;
13816;SDS011;6979;52.116;5.286;2023-02-21T08:53:38;56.67;;;38.23;;
13816;SDS011;6979;52.116;5.286;2023-02-21T08:56:05;56.23;;;40.20;;
13816;SDS011;6979;52.116;5.286;2023-02-21T08:58:33;53.43;;;38.27;;
13816;SDS011;6979;52.116;5.286;2023-02-21T09:00:59;54.33;;;36.57;;
13816;SDS011;6979;52.116;5.286;2023-02-21T09:03:28;47.67;;;33.83;;
13816;SDS011;6979;52.116;5.286;2023-02-21T09:05:54;49.57;;;35.30;;
13816;SDS011;6979;52.116;5.286;2023-02-21T09:08:21;57.30;;;36.97;;
13816;SDS011;6979;52.116;5.286;2023-02-21T09:10:50;51.17;;;36.33;;
13816;SDS011;6979;52.116;5.286;2023-02-21T09:13:19;54.57;;;37.03;;
13816;SDS011;6979;52.116;5.286;2023-02-21T09:15:46;49.23;;;34.83;;
13816;SDS011;6979;52.116;5.286;2023-02-21T09:18:13;52.67;;;34.93;;
13816;SDS011;6979;52.116;5.286;2023-02-21T09:20:41;56.47;;;39.03;;
13816;SDS011;6979;52.116;5.286;2023-02-21T09:23:15;53.30;;;36.97;;
13816;SDS011;6979;52.116;5.286;2023-02-21T09:25:47;51.77;;;36.23;;
13816;SDS011;6979;52.116;5.286;2023-02-21T09:28:14;52.17;;;35.97;;
13816;SDS011;6979;52.116;5.286;2023-02-21T09:30:42;50.80;;;36.77;;
13816;SDS011;6979;52.116;5.286;2023-02-21T09:33:09;53.93;;;35.97;;
13816;SDS011;6979;52.116;5.286;2023-02-21T09:35:36;50.23;;;35.30;;
13816;SDS011;6979;52.116;5.286;2023-02-21T09:38:05;51.37;;;34.53;;
13816;SDS011;6979;52.116;5.286;2023-02-21T09:40:34;49.47;;;32.40;;
13816;SDS011;6979;52.116;5.286;2023-02-21T09:43:05;53.07;;;35.10;;
13816;SDS011;6979;52.116;5.286;2023-02-21T09:45:39;50.13;;;36.63;;
13816;SDS011;6979;52.116;5.286;2023-02-21T09:48:08;50.00;;;35.77;;
13816;SDS011;6979;52.116;5.286;2023-02-21T09:50:40;46.20;;;32.77;;
13816;SDS011;6979;52.116;5.286;2023-02-21T09:53:15;49.30;;;34.23;;
13816;SDS011;6979;52.116;5.286;2023-02-21T09:55:45;52.67;;;35.80;;
13816;SDS011;6979;52.116;5.286;2023-02-21T09:58:16;51.43;;;35.83;;
13816;SDS011;6979;52.116;5.286;2023-02-21T10:00:44;49.57;;;34.53;;
13816;SDS011;6979;52.116;5.286;2023-02-21T10:03:35;49.40;;;33.70;;
13816;SDS011;6979;52.116;5.286;2023-02-21T10:06:13;46.40;;;33.13;;
13816;SDS011;6979;52.116;5.286;2023-02-21T10:08:55;48.97;;;33.63;;
13816;SDS011;6979;52.116;5.286;2023-02-21T10:11:36;47.33;;;33.57;;
13816;SDS011;6979;52.116;5.286;2023-02-21T10:14:14;48.37;;;35.43;;
13816;SDS011;6979;52.116;5.286;2023-02-21T10:16:47;54.80;;;41.43;;
13816;SDS011;6979;52.116;5.286;2023-02-21T10:19:24;49.03;;;35.07;;
13816;SDS011;6979;52.116;5.286;2023-02-21T10:21:55;44.83;;;33.67;;
13816;SDS011;6979;52.116;5.286;2023-02-21T10:24:25;55.40;;;37.37;;
13816;SDS011;6979;52.116;5.286;2023-02-21T10:26:56;51.67;;;34.90;;
13816;SDS011;6979;52.116;5.286;2023-02-21T10:29:29;51.73;;;35.37;;
13816;SDS011;6979;52.116;5.286;2023-02-21T10:32:05;44.67;;;32.03;;
13816;SDS011;6979;52.116;5.286;2023-02-21T10:34:34;48.30;;;34.10;;
13816;SDS011;6979;52.116;5.286;2023-02-21T10:37:02;49.13;;;34.63;;
13816;SDS011;6979;52.116;5.286;2023-02-21T10:39:42;48.43;;;34.30;;
13816;SDS011;6979;52.116;5.286;2023-02-21T10:42:17;53.20;;;35.10;;
13816;SDS011;6979;52.116;5.286;2023-02-21T10:45:01;51.57;;;35.37;;
13816;SDS011;6979;52.116;5.286;2023-02-21T10:47:38;52.47;;;36.10;;
13816;SDS011;6979;52.116;5.286;2023-02-21T10:50:16;51.83;;;36.63;;
13816;SDS011;6979;52.116;5.286;2023-02-21T10:53:03;49.87;;;34.87;;
13816;SDS011;6979;52.116;5.286;2023-02-21T10:55:32;48.63;;;35.37;;
13816;SDS011;6979;52.116;5.286;2023-02-21T10:58:06;53.33;;;36.53;;
13816;SDS011;6979;52.116;5.286;2023-02-21T11:00:34;56.70;;;37.57;;
13816;SDS011;6979;52.116;5.286;2023-02-21T11:03:05;50.60;;;35.63;;
13816;SDS011;6979;52.116;5.286;2023-02-21T11:05:37;52.33;;;36.07;;
13816;SDS011;6979;52.116;5.286;2023-02-21T11:08:05;60.10;;;38.57;;
13816;SDS011;6979;52.116;5.286;2023-02-21T11:10:36;55.97;;;37.63;;
13816;SDS011;6979;52.116;5.286;2023-02-21T11:13:15;49.57;;;35.30;;
13816;SDS011;6979;52.116;5.286;2023-02-21T11:15:43;55.97;;;37.90;;
13816;SDS011;6979;52.116;5.286;2023-02-21T11:18:12;50.60;;;35.40;;
13816;SDS011;6979;52.116;5.286;2023-02-21T11:20:44;55.13;;;38.43;;
13816;SDS011;6979;52.116;5.286;2023-02-21T11:23:21;58.83;;;38.20;;
13816;SDS011;6979;52.116;5.286;2023-02-21T11:25:57;59.33;;;39.87;;
13816;SDS011;6979;52.116;5.286;2023-02-21T11:28:31;56.90;;;38.07;;
13816;SDS011;6979;52.116;5.286;2023-02-21T11:31:04;56.80;;;37.20;;
13816;SDS011;6979;52.116;5.286;2023-02-21T11:33:35;54.00;;;36.47;;
13816;SDS011;6979;52.116;5.286;2023-02-21T11:39:05;53.10;;;35.93;;
13816;SDS011;6979;52.116;5.286;2023-02-21T11:41:46;58.20;;;37.17;;
13816;SDS011;6979;52.116;5.286;2023-02-21T11:44:21;56.30;;;37.67;;
13816;SDS011;6979;52.116;5.286;2023-02-21T11:46:55;53.83;;;34.53;;
13816;SDS011;6979;52.116;5.286;2023-02-21T11:49:35;51.80;;;33.63;;
13816;SDS011;6979;52.116;5.286;2023-02-21T11:52:07;55.53;;;36.03;;
13816;SDS011;6979;52.116;5.286;2023-02-21T11:54:36;54.17;;;36.37;;
13816;SDS011;6979;52.116;5.286;2023-02-21T11:57:08;54.27;;;37.93;;
13816;SDS011;6979;52.116;5.286;2023-02-21T11:59:45;54.13;;;35.03;;
13816;SDS011;6979;52.116;5.286;2023-02-21T12:02:28;53.20;;;35.43;;
13816;SDS011;6979;52.116;5.286;2023-02-21T12:05:20;53.80;;;36.53;;
13816;SDS011;6979;52.116;5.286;2023-02-21T12:08:01;56.33;;;37.83;;
13816;SDS011;6979;52.116;5.286;2023-02-21T12:10:45;54.80;;;36.07;;
13816;SDS011;6979;52.116;5.286;2023-02-21T12:13:21;58.67;;;38.27;;
13816;SDS011;6979;52.116;5.286;2023-02-21T12:15:59;62.47;;;39.40;;
13816;SDS011;6979;52.116;5.286;2023-02-21T12:18:38;54.50;;;37.70;;
13816;SDS011;6979;52.116;5.286;2023-02-21T12:21:23;58.67;;;39.57;;
13816;SDS011;6979;52.116;5.286;2023-02-21T12:24:02;54.43;;;35.73;;
13816;SDS011;6979;52.116;5.286;2023-02-21T12:26:45;58.50;;;38.73;;
13816;SDS011;6979;52.116;5.286;2023-02-21T12:29:22;55.17;;;37.87;;
13816;SDS011;6979;52.116;5.286;2023-02-21T12:32:15;60.50;;;39.07;;
13816;SDS011;6979;52.116;5.286;2023-02-21T12:34:54;52.17;;;35.07;;
13816;SDS011;6979;52.116;5.286;2023-02-21T12:37:40;48.67;;;34.30;;
13816;SDS011;6979;52.116;5.286;2023-02-21T12:40:18;53.30;;;36.03;;
13816;SDS011;6979;52.116;5.286;2023-02-21T12:43:00;53.73;;;37.23;;
13816;SDS011;6979;52.116;5.286;2023-02-21T12:45:55;55.03;;;36.23;;
13816;SDS011;6979;52.116;5.286;2023-02-21T12:48:32;50.33;;;34.77;;
13816;SDS011;6979;52.116;5.286;2023-02-21T12:51:02;49.70;;;35.40;;
13816;SDS011;6979;52.116;5.286;2023-02-21T12:53:38;50.43;;;34.30;;
13816;SDS011;6979;52.116;5.286;2023-02-21T12:56:10;49.07;;;33.93;;
13816;SDS011;6979;52.116;5.286;2023-02-21T12:58:43;42.80;;;32.03;;
13816;SDS011;6979;52.116;5.286;2023-02-21T13:01:17;47.03;;;32.53;;
13816;SDS011;6979;52.116;5.286;2023-02-21T13:03:51;42.37;;;30.97;;
13816;SDS011;6979;52.116;5.286;2023-02-21T13:06:24;39.03;;;28.53;;
13816;SDS011;6979;52.116;5.286;2023-02-21T13:08:58;30.73;;;23.17;;
13816;SDS011;6979;52.116;5.286;2023-02-21T13:11:35;28.97;;;22.47;;
13816;SDS011;6979;52.116;5.286;2023-02-21T13:14:07;28.63;;;19.70;;
13816;SDS011;6979;52.116;5.286;2023-02-21T13:16:39;24.30;;;19.50;;
13816;SDS011;6979;52.116;5.286;2023-02-21T13:19:06;24.20;;;18.73;;
13816;SDS011;6979;52.116;5.286;2023-02-21T13:21:41;23.90;;;17.83;;
13816;SDS011;6979;52.116;5.286;2023-02-21T13:24:24;19.80;;;13.97;;
13816;SDS011;6979;52.116;5.286;2023-02-21T13:27:09;17.07;;;15.00;;
13816;SDS011;6979;52.116;5.286;2023-02-21T13:29:58;19.43;;;15.27;;
13816;SDS011;6979;52.116;5.286;2023-02-21T13:32:30;19.67;;;16.00;;
13816;SDS011;6979;52.116;5.286;2023-02-21T13:35:04;18.83;;;14.20;;
13816;SDS011;6979;52.116;5.286;2023-02-21T13:37:34;17.03;;;14.53;;
13816;SDS011;6979;52.116;5.286;2023-02-21T13:40:16;19.60;;;14.63;;
13816;SDS011;6979;52.116;5.286;2023-02-21T13:42:48;19.30;;;15.50;;
13816;SDS011;6979;52.116;5.286;2023-02-21T13:45:29;20.57;;;16.20;;
13816;SDS011;6979;52.116;5.286;2023-02-21T13:48:21;17.73;;;15.47;;
13816;SDS011;6979;52.116;5.286;2023-02-21T13:50:51;21.43;;;15.97;;
13816;SDS011;6979;52.116;5.286;2023-02-21T13:53:20;19.97;;;16.03;;
13816;SDS011;6979;52.116;5.286;2023-02-21T14:02:21;16.93;;;14.70;;
13816;SDS011;6979;52.116;5.286;2023-02-21T14:05:09;21.97;;;17.27;;
13816;SDS011;6979;52.116;5.286;2023-02-21T14:07:55;19.47;;;15.63;;
13816;SDS011;6979;52.116;5.286;2023-02-21T14:10:29;20.07;;;16.07;;
13816;SDS011;6979;52.116;5.286;2023-02-21T14:13:04;21.57;;;17.70;;
13816;SDS011;6979;52.116;5.286;2023-02-21T14:15:38;22.30;;;17.07;;
13816;SDS011;6979;52.116;5.286;2023-02-21T14:18:16;19.97;;;17.03;;
13816;SDS011;6979;52.116;5.286;2023-02-21T14:20:49;20.13;;;15.50;;
13816;SDS011;6979;52.116;5.286;2023-02-21T14:23:20;18.23;;;16.10;;
13816;SDS011;6979;52.116;5.286;2023-02-21T14:25:53;24.50;;;18.53;;
13816;SDS011;6979;52.116;5.286;2023-02-21T14:34:20;19.90;;;16.03;;
13816;SDS011;6979;52.116;5.286;2023-02-21T14:36:51;18.57;;;15.57;;
13816;SDS011;6979;52.116;5.286;2023-02-21T14:39:22;18.73;;;14.03;;
13816;SDS011;6979;52.116;5.286;2023-02-21T14:41:54;17.07;;;14.37;;
13816;SDS011;6979;52.116;5.286;2023-02-21T14:44:33;15.83;;;13.17;;
13816;SDS011;6979;52.116;5.286;2023-02-21T14:47:20;13.07;;;11.57;;
13816;SDS011;6979;52.116;5.286;2023-02-21T14:56:08;10.97;;;9.87;;
13816;SDS011;6979;52.116;5.286;2023-02-21T14:59:01;11.27;;;10.17;;
13816;SDS011;6979;52.116;5.286;2023-02-21T15:01:46;11.83;;;10.20;;
13816;SDS011;6979;52.116;5.286;2023-02-21T15:04:22;11.07;;;9.83;;
13816;SDS011;6979;52.116;5.286;2023-02-21T15:07:00;9.80;;;8.87;;
13816;SDS011;6979;52.116;5.286;2023-02-21T15:09:34;11.23;;;8.33;;
13816;SDS011;6979;52.116;5.286;2023-02-21T15:12:02;10.40;;;9.30;;
13816;SDS011;6979;52.116;5.286;2023-02-21T15:14:34;9.67;;;8.73;;
13816;SDS011;6979;52.116;5.286;2023-02-21T15:17:09;9.27;;;8.37;;
13816;SDS011;6979;52.116;5.286;2023-02-21T15:19:41;9.93;;;8.93;;
13816;SDS011;6979;52.116;5.286;2023-02-21T15:22:19;8.73;;;7.83;;
13816;SDS011;6979;52.116;5.286;2023-02-21T15:24:58;9.13;;;8.23;;
13816;SDS011;6979;52.116;5.286;2023-02-21T15:27:51;8.43;;;7.63;;
13816;SDS011;6979;52.116;5.286;2023-02-21T15:30:23;8.70;;;7.70;;
13816;SDS011;6979;52.116;5.286;2023-02-21T15:32:54;10.17;;;9.17;;
13816;SDS011;6979;52.116;5.286;2023-02-21T15:35:29;9.47;;;8.57;;
13816;SDS011;6979;52.116;5.286;2023-02-21T15:38:02;9.50;;;8.50;;
13816;SDS011;6979;52.116;5.286;2023-02-21T15:40:30;8.17;;;7.37;;
13816;SDS011;6979;52.116;5.286;2023-02-21T15:42:59;7.70;;;6.93;;